createdAt,value
2023-04-10T00:00:22.211Z,98771.88
2023-04-10T00:05:14.007Z,98761.28
2023-04-10T00:10:06.034Z,98758.81
2023-04-10T00:14:58.420Z,98776.72
2023-04-10T00:19:50.049Z,98760.47
2023-04-10T00:24:41.804Z,98753.41
2023-04-10T00:29:35.704Z,98724.09
2023-04-10T00:34:28.660Z,98724.72
2023-04-10T00:39:20.567Z,98717.88
2023-04-10T00:44:13.723Z,98703.75
2023-04-10T00:49:06.435Z,98704.56
2023-04-10T00:54:01.375Z,98715.41
2023-04-10T00:58:53.051Z,98680.09
2023-04-10T01:03:45.695Z,98683.63
2023-04-10T01:08:47.763Z,98673.84
2023-04-10T01:14:12.355Z,98671.16
2023-04-10T01:19:19.765Z,98668.91
2023-04-10T01:24:36.055Z,98678.81
2023-04-10T01:29:31.056Z,98651.38
2023-04-10T01:34:27.997Z,98653.50
2023-04-10T01:39:21.386Z,98649.84
2023-04-10T01:44:15.282Z,98648.09
2023-04-10T01:49:07.332Z,98645.03
2023-04-10T01:54:00.779Z,98647.97
2023-04-10T01:58:52.721Z,98641.38
2023-04-10T02:03:44.562Z,98642.56
2023-04-10T02:09:22.109Z,98636.81
2023-04-10T02:14:18.239Z,98619.28
2023-04-10T02:19:11.245Z,98598.72
2023-04-10T02:24:03.137Z,98588.13
2023-04-10T02:28:54.907Z,98577.31
2023-04-10T02:33:46.689Z,98553.78
2023-04-10T02:38:38.301Z,98542.72
2023-04-10T02:43:29.939Z,98538.34
2023-04-10T02:48:22.000Z,98536.72
2023-04-10T02:53:16.133Z,98534.84
2023-04-10T02:58:08.145Z,98513.19
2023-04-10T03:02:59.969Z,98513.78
2023-04-10T03:07:51.809Z,98510.50
2023-04-10T03:12:43.433Z,98506.50
2023-04-10T03:17:35.157Z,98506.75
2023-04-10T03:22:27.719Z,98509.53
2023-04-10T03:27:19.302Z,98502.47
2023-04-10T03:32:10.974Z,98489.56
2023-04-10T03:37:03.454Z,98477.66
2023-04-10T03:41:55.075Z,98465.22
2023-04-10T03:46:46.745Z,98472.00
2023-04-10T03:51:38.384Z,98468.25
2023-04-10T03:56:30.130Z,98473.09
2023-04-10T04:01:22.534Z,98474.94
2023-04-10T04:06:14.206Z,98474.22
2023-04-10T04:11:06.285Z,98452.59
2023-04-10T04:15:57.892Z,98456.22
2023-04-10T04:20:49.490Z,98455.75
2023-04-10T04:25:41.227Z,98447.16
2023-04-10T04:30:32.916Z,98441.81
2023-04-10T04:35:24.705Z,98438.56
2023-04-10T04:40:16.344Z,98440.53
2023-04-10T04:45:08.699Z,98438.06
2023-04-10T04:50:00.417Z,98435.44
2023-04-10T04:54:52.047Z,98429.47
2023-04-10T04:59:43.773Z,98428.41
2023-04-10T05:04:35.423Z,98409.53
2023-04-10T05:09:27.069Z,98412.81
2023-04-10T05:14:18.675Z,98394.97
2023-04-10T05:19:10.493Z,98387.41
2023-04-10T05:24:02.128Z,98389.63
2023-04-10T05:28:53.990Z,98387.50
2023-04-10T05:33:46.025Z,98385.63
2023-04-10T05:38:37.624Z,98391.84
2023-04-10T05:43:29.302Z,98384.78
2023-04-10T05:48:20.956Z,98381.59
2023-04-10T05:53:13.993Z,98373.22
2023-04-10T05:58:05.670Z,98370.50
2023-04-10T06:02:57.462Z,98366.50
2023-04-10T06:07:49.165Z,98363.81
2023-04-10T06:12:40.987Z,98358.13
2023-04-10T06:17:32.716Z,98349.53
2023-04-10T06:22:24.380Z,98341.16
2023-04-10T06:27:16.390Z,98332.78
2023-04-10T06:32:08.028Z,98315.72
2023-04-10T06:36:59.690Z,98312.28
2023-04-10T06:41:51.275Z,98322.53
2023-04-10T06:46:42.999Z,98311.44
2023-04-10T06:51:34.659Z,98310.38
2023-04-10T06:56:27.143Z,98314.25
2023-04-10T07:01:18.953Z,98298.31
2023-04-10T07:06:11.262Z,98298.88
2023-04-10T07:11:02.939Z,98297.00
2023-04-10T07:15:55.756Z,98287.31
2023-04-10T07:20:50.075Z,98272.59
2023-04-10T07:25:42.925Z,98280.28
2023-04-10T07:30:34.516Z,98287.09
2023-04-10T07:35:27.066Z,98280.59
2023-04-10T07:40:19.023Z,98258.50
2023-04-10T07:45:11.095Z,98261.59
2023-04-10T07:50:02.806Z,98240.00
2023-04-10T07:54:54.434Z,98243.78
2023-04-10T07:59:46.541Z,98228.91
2023-04-10T08:04:38.320Z,98219.25
2023-04-10T08:09:30.673Z,98212.34
2023-04-10T08:14:22.263Z,98202.97
2023-04-10T08:19:13.946Z,98193.00
2023-04-10T08:24:06.741Z,98195.72
2023-04-10T08:29:00.056Z,98178.34
2023-04-10T08:33:52.187Z,98160.38
2023-04-10T08:38:44.925Z,98160.69
2023-04-10T08:43:36.576Z,98168.56
2023-04-10T08:48:38.219Z,98146.72
2023-04-10T08:53:32.005Z,98142.94
2023-04-10T08:58:24.678Z,98132.88
2023-04-10T09:03:16.533Z,98125.25
2023-04-10T09:08:09.701Z,98116.25
2023-04-10T09:13:01.348Z,98110.81
2023-04-10T09:17:56.741Z,98107.28
2023-04-10T09:22:48.398Z,98100.19
2023-04-10T09:27:40.396Z,98078.94
2023-04-10T09:32:42.286Z,98060.06
2023-04-10T09:37:35.398Z,98047.44
2023-04-10T09:42:34.967Z,98037.03
2023-04-10T09:47:27.279Z,98028.94
2023-04-10T09:52:24.846Z,98019.72
2023-04-10T09:57:19.313Z,98015.75
2023-04-10T10:02:13.447Z,98002.72
2023-04-10T10:07:05.539Z,97999.88
2023-04-10T10:11:58.582Z,97992.94
2023-04-10T10:16:56.853Z,97992.25
2023-04-10T10:21:48.845Z,97984.72
2023-04-10T10:26:40.844Z,97982.28
2023-04-10T10:31:35.380Z,97970.06
2023-04-10T10:36:27.397Z,97954.56
2023-04-10T10:41:27.720Z,97933.19
2023-04-10T10:46:43.520Z,97930.03
2023-04-10T10:51:50.146Z,97924.50
2023-04-10T10:56:41.799Z,97927.84
2023-04-10T11:01:33.579Z,97951.81
2023-04-10T11:06:52.302Z,97969.56
2023-04-10T11:11:59.292Z,97946.56
2023-04-10T11:16:51.026Z,97926.47
2023-04-10T11:22:07.492Z,97922.06
2023-04-10T11:26:59.953Z,97929.41
2023-04-10T11:31:59.674Z,97936.69
2023-04-10T11:36:51.370Z,97942.06
2023-04-10T11:41:45.056Z,97949.09
2023-04-10T11:46:38.142Z,97951.09
2023-04-10T11:51:31.158Z,97959.63
2023-04-10T11:56:22.863Z,97956.63
2023-04-10T12:01:14.836Z,97955.25
2023-04-10T12:06:14.515Z,97971.56
2023-04-10T12:11:07.410Z,97962.84
2023-04-10T12:16:01.791Z,97976.47
2023-04-10T12:20:56.506Z,97977.31
2023-04-10T12:25:48.183Z,97980.28
2023-04-10T12:30:55.215Z,97978.09
2023-04-10T12:35:46.890Z,97970.50
2023-04-10T12:40:40.562Z,97987.34
2023-04-10T12:45:45.427Z,97977.59
2023-04-10T12:50:47.791Z,97987.34
2023-04-10T12:55:40.214Z,98000.41
2023-04-10T13:00:31.852Z,98005.03
2023-04-10T13:05:25.241Z,98003.66
2023-04-10T13:10:17.046Z,98011.56
2023-04-10T13:15:08.932Z,97990.91
2023-04-10T13:20:00.628Z,97993.88
2023-04-10T13:24:52.458Z,97986.81
2023-04-10T13:29:44.236Z,97981.66
2023-04-10T13:34:36.149Z,97979.16
2023-04-10T13:39:31.579Z,97979.44
2023-04-10T13:44:23.550Z,97988.41
2023-04-10T13:49:20.330Z,97973.44
2023-04-10T13:54:12.405Z,97966.88
2023-04-10T13:59:04.728Z,97965.78
2023-04-10T14:03:56.970Z,97971.22
2023-04-10T14:08:48.773Z,97963.13
2023-04-10T14:13:40.620Z,97968.03
2023-04-10T14:18:32.448Z,97974.59
2023-04-10T14:23:24.033Z,97991.97
2023-04-10T14:28:18.827Z,97985.72
2023-04-10T14:33:11.032Z,97982.75
2023-04-10T14:38:03.412Z,97990.06
2023-04-10T14:42:55.103Z,97982.47
2023-04-10T14:47:47.618Z,98005.03
2023-04-10T14:52:39.320Z,97999.56
2023-04-10T14:57:31.247Z,97994.09
2023-04-10T15:02:22.981Z,98005.75
2023-04-10T15:07:14.869Z,97983.22
2023-04-10T15:12:07.409Z,97984.28
2023-04-10T15:16:59.081Z,97975.09
2023-04-10T15:21:51.002Z,98001.44
2023-04-10T15:26:46.154Z,97982.16
2023-04-10T15:31:37.997Z,97993.34
2023-04-10T15:36:29.999Z,97997.41
2023-04-10T15:41:23.068Z,97996.28
2023-04-10T15:46:15.970Z,97997.66
2023-04-10T15:51:07.874Z,98000.94
2023-04-10T15:55:59.546Z,98019.41
2023-04-10T16:00:51.306Z,98008.00
2023-04-10T16:05:42.992Z,98004.66
2023-04-10T16:10:35.801Z,98007.91
2023-04-10T16:15:28.650Z,98017.41
2023-04-10T16:20:20.412Z,98012.06
2023-04-10T16:25:12.102Z,98022.31
2023-04-10T16:30:05.996Z,98025.03
2023-04-10T16:34:57.862Z,98025.22
2023-04-10T16:39:49.469Z,98040.38
2023-04-10T16:44:41.166Z,98041.69
2023-04-10T16:49:32.762Z,98047.09
2023-04-10T16:54:24.508Z,98069.50
2023-04-10T16:59:16.162Z,98067.75
2023-04-10T17:04:09.319Z,98047.38
2023-04-10T17:09:01.287Z,98054.63
2023-04-10T17:13:53.616Z,98061.19
2023-04-10T17:18:45.345Z,98069.88
2023-04-10T17:23:37.359Z,98057.34
2023-04-10T17:28:29.086Z,98073.81
2023-04-10T17:33:21.900Z,98089.16
2023-04-10T17:38:13.576Z,98091.47
2023-04-10T17:43:05.413Z,98107.56
2023-04-10T17:47:57.102Z,98092.03
2023-04-10T17:52:48.906Z,98099.31
2023-04-10T17:57:40.565Z,98113.63
2023-04-10T18:02:32.382Z,98120.97
2023-04-10T18:07:24.080Z,98107.00
2023-04-10T18:12:15.811Z,98132.13
2023-04-10T18:17:07.613Z,98153.72
2023-04-10T18:21:59.594Z,98173.69
2023-04-10T18:26:51.229Z,98190.03
2023-04-10T18:31:42.893Z,98198.34
2023-04-10T18:36:34.476Z,98188.44
2023-04-10T18:41:26.099Z,98199.75
2023-04-10T18:46:17.740Z,98192.13
2023-04-10T18:51:12.847Z,98212.56
2023-04-10T18:56:04.614Z,98214.63
2023-04-10T19:00:56.431Z,98219.84
2023-04-10T19:05:48.312Z,98224.59
2023-04-10T19:10:42.199Z,98229.94
2023-04-10T19:15:33.940Z,98234.19
2023-04-10T19:20:50.701Z,98230.19
2023-04-10T19:25:37.748Z,98252.06
2023-04-10T19:30:29.562Z,98243.25
2023-04-10T19:35:22.688Z,98255.66
2023-04-10T19:40:14.382Z,98247.09
2023-04-10T19:45:06.636Z,98252.66
2023-04-10T19:49:58.322Z,98251.19
2023-04-10T19:54:50.165Z,98264.34
2023-04-10T19:59:41.812Z,98278.56
2023-04-10T20:04:33.615Z,98280.38
2023-04-10T20:09:25.745Z,98299.41
2023-04-10T20:14:17.390Z,98303.88
2023-04-10T20:19:08.992Z,98305.63
2023-04-10T20:24:01.132Z,98324.19
2023-04-10T20:28:53.587Z,98324.78
2023-04-10T20:33:45.917Z,98313.41
2023-04-10T20:38:37.561Z,98316.25
2023-04-10T20:43:29.157Z,98318.00
2023-04-10T20:48:20.877Z,98321.66
2023-04-10T20:53:13.333Z,98327.50
2023-04-10T20:58:05.918Z,98331.63
2023-04-10T21:02:58.121Z,98336.78
2023-04-10T21:07:49.871Z,98347.34
2023-04-10T21:12:41.564Z,98362.81
2023-04-10T21:17:33.417Z,98360.00
2023-04-10T21:22:26.997Z,98358.69
2023-04-10T21:27:19.657Z,98369.78
2023-04-10T21:32:11.614Z,98381.72
2023-04-10T21:37:03.267Z,98385.66
2023-04-10T21:41:54.964Z,98382.69
2023-04-10T21:46:46.789Z,98386.97
2023-04-10T21:51:40.769Z,98394.34
2023-04-10T21:56:33.036Z,98389.91
2023-04-10T22:01:24.898Z,98393.97
2023-04-10T22:06:16.508Z,98396.59
2023-04-10T22:11:08.579Z,98398.09
2023-04-10T22:16:03.613Z,98397.53
2023-04-10T22:20:55.426Z,98409.88
2023-04-10T22:25:47.040Z,98407.94
2023-04-10T22:30:38.876Z,98424.97
2023-04-10T22:35:30.921Z,98440.13
2023-04-10T22:40:22.895Z,98440.19
2023-04-10T22:45:15.637Z,98447.88
2023-04-10T22:50:07.710Z,98451.78
2023-04-10T22:54:59.411Z,98447.00
2023-04-10T22:59:51.158Z,98439.81
2023-04-10T23:04:42.836Z,98448.50
2023-04-10T23:09:34.472Z,98447.06
2023-04-10T23:14:26.357Z,98444.59
2023-04-10T23:19:18.821Z,98438.78
2023-04-10T23:24:10.608Z,98440.66
2023-04-10T23:29:02.366Z,98439.38
2023-04-10T23:33:56.236Z,98446.19
2023-04-10T23:38:47.973Z,98441.84
2023-04-10T23:43:39.648Z,98448.19
2023-04-10T23:48:32.004Z,98444.84
2023-04-10T23:53:23.676Z,98455.59
2023-04-10T23:58:15.509Z,98460.19
